createdAt,value
2019-05-07T04:00:57.247Z,296.00
2019-05-07T04:01:57.120Z,320.00
2019-05-07T04:03:49.782Z,372.00
2019-05-07T04:04:52.654Z,408.00
2019-05-07T04:06:43.407Z,468.00
2019-05-07T04:07:43.080Z,492.00
2019-05-07T04:09:34.886Z,536.00
2019-05-07T04:10:34.776Z,564.00
2019-05-07T04:12:27.468Z,620.00
2019-05-07T04:13:27.322Z,648.00
2019-05-07T04:15:23.106Z,692.00
2019-05-07T04:16:19.906Z,716.00
2019-05-07T04:18:13.290Z,748.00
2019-05-07T04:19:13.212Z,744.00
2019-05-07T04:21:05.129Z,748.00
2019-05-07T04:22:05.002Z,800.00
2019-05-07T04:23:57.666Z,912.00
2019-05-07T04:24:57.557Z,932.00
2019-05-07T04:26:50.241Z,980.00
2019-05-07T04:27:52.594Z,1040.00
2019-05-07T04:29:43.074Z,1140.00
2019-05-07T04:30:43.860Z,1180.00
2019-05-07T04:32:35.334Z,1264.00
2019-05-07T04:33:35.205Z,1288.00
2019-05-07T04:35:27.873Z,1388.00
2019-05-07T04:36:27.760Z,1452.00
2019-05-07T04:38:23.571Z,1512.00
2019-05-07T04:39:22.949Z,1508.00
2019-05-07T04:41:13.849Z,1516.00
2019-05-07T04:42:13.337Z,1556.00
2019-05-07T04:44:05.528Z,1568.00
2019-05-07T04:45:05.417Z,1552.00
2019-05-07T04:46:58.094Z,1560.00
2019-05-07T04:47:57.969Z,1568.00
2019-05-07T04:49:53.455Z,1704.00
2019-05-07T04:50:53.911Z,1840.00
2019-05-07T04:52:43.853Z,1788.00
2019-05-07T04:53:43.227Z,1812.00
2019-05-07T04:55:35.748Z,1668.00
2019-05-07T04:56:35.637Z,1664.00
2019-05-07T04:58:28.285Z,1788.00
2019-05-07T04:59:28.174Z,1800.00
2019-05-07T05:01:23.373Z,1824.00
2019-05-07T05:02:22.976Z,1892.00
2019-05-07T05:04:25.342Z,2016.00
2019-05-07T05:05:14.286Z,2104.00
2019-05-07T05:07:06.957Z,2220.00
2019-05-07T05:08:06.834Z,2284.00
2019-05-07T05:09:59.498Z,2448.00
2019-05-07T05:10:59.392Z,2544.00
2019-05-07T05:12:53.619Z,2476.00
2019-05-07T05:13:53.203Z,2840.00
2019-05-07T05:15:44.702Z,3008.00
2019-05-07T05:16:44.526Z,3008.00
2019-05-07T05:18:37.190Z,3092.00
2019-05-07T05:19:37.068Z,3032.00
2019-05-07T05:21:32.074Z,2940.00
2019-05-07T05:22:31.642Z,2824.00
2019-05-07T05:24:22.306Z,2836.00
2019-05-07T05:25:22.692Z,3224.00
2019-05-07T05:27:14.869Z,3420.00
2019-05-07T05:28:14.744Z,3424.00
2019-05-07T05:30:07.419Z,3140.00
2019-05-07T05:31:07.311Z,3520.00
2019-05-07T05:33:02.187Z,3724.00
2019-05-07T05:34:02.074Z,3812.00
2019-05-07T05:35:52.700Z,3752.00
2019-05-07T05:36:53.212Z,3900.00
2019-05-07T05:38:45.097Z,4032.00
2019-05-07T05:39:44.982Z,4088.00
2019-05-07T05:41:38.053Z,4088.00
2019-05-07T05:42:37.540Z,4092.00
2019-05-07T05:44:32.064Z,4216.00
2019-05-07T05:45:30.098Z,4328.00
2019-05-07T05:47:22.788Z,4584.00
2019-05-07T05:48:22.665Z,4760.00
2019-05-07T05:50:15.340Z,5068.00
2019-05-07T05:51:15.217Z,5200.00
2019-05-07T05:53:07.910Z,5372.00
2019-05-07T05:54:07.786Z,5472.00
2019-05-07T05:56:02.408Z,6020.00
2019-05-07T05:57:02.521Z,6208.00
2019-05-07T05:58:53.014Z,6480.00
2019-05-07T05:59:55.461Z,6292.00
2019-05-07T06:01:45.601Z,6304.00
2019-05-07T06:02:45.478Z,5624.00
2019-05-07T06:04:38.137Z,7472.00
2019-05-07T06:05:38.027Z,7860.00
2019-05-07T06:07:31.920Z,8384.00
2019-05-07T06:08:32.536Z,8824.00
2019-05-07T06:10:23.285Z,9712.00
2019-05-07T06:11:23.147Z,10236.00
2019-05-07T06:13:15.816Z,9884.00
2019-05-07T06:14:15.714Z,10040.00
2019-05-07T06:16:08.397Z,11940.00
2019-05-07T06:17:08.277Z,12012.00
2019-05-07T06:19:02.043Z,11820.00
2019-05-07T06:20:02.949Z,11780.00
2019-05-07T06:21:53.527Z,11816.00
2019-05-07T06:22:53.400Z,11780.00
2019-05-07T06:24:46.080Z,11636.00
2019-05-07T06:25:45.969Z,12048.00
2019-05-07T06:27:38.667Z,12300.00
2019-05-07T06:28:38.539Z,12596.00
2019-05-07T06:30:31.241Z,11588.00
2019-05-07T06:31:32.724Z,11252.00
2019-05-07T06:33:23.776Z,12020.00
2019-05-07T06:34:23.665Z,12248.00
2019-05-07T06:36:16.355Z,12076.00
2019-05-07T06:37:16.230Z,11916.00
2019-05-07T06:39:08.911Z,12032.00
2019-05-07T06:40:08.809Z,11836.00
2019-05-07T06:42:02.064Z,11476.00
2019-05-07T06:43:03.150Z,12660.00
2019-05-07T06:44:54.053Z,13964.00
2019-05-07T06:45:53.938Z,13192.00
2019-05-07T06:47:46.637Z,12756.00
2019-05-07T06:48:46.537Z,12116.00
2019-05-07T06:50:39.199Z,12312.00
2019-05-07T06:51:39.081Z,13268.00
2019-05-07T06:53:33.299Z,13992.00
2019-05-07T06:54:32.168Z,14752.00
2019-05-07T06:56:24.342Z,16992.00
2019-05-07T06:57:24.225Z,16576.00
2019-05-07T06:59:16.899Z,18464.00
2019-05-07T07:00:16.786Z,18336.00
2019-05-07T07:02:09.479Z,15712.00
2019-05-07T07:03:09.360Z,15680.00
2019-05-07T07:05:02.899Z,16544.00
2019-05-07T07:06:02.713Z,17024.00
2019-05-07T07:07:54.603Z,17888.00
2019-05-07T07:08:54.511Z,16864.00
2019-05-07T07:10:47.184Z,21440.00
2019-05-07T07:11:47.110Z,18560.00
2019-05-07T07:13:39.751Z,17792.00
2019-05-07T07:14:39.639Z,17504.00
2019-05-07T07:16:32.629Z,18976.00
2019-05-07T07:17:32.756Z,18528.00
2019-05-07T07:19:24.962Z,18912.00
2019-05-07T07:20:24.981Z,18848.00
2019-05-07T07:22:17.549Z,29760.00
2019-05-07T07:23:17.435Z,27616.00
2019-05-07T07:25:11.885Z,19072.00
2019-05-07T07:26:10.004Z,18880.00
2019-05-07T07:28:02.886Z,19232.00
2019-05-07T07:29:02.589Z,20128.00
2019-05-07T07:30:55.270Z,21088.00
2019-05-07T07:31:55.151Z,19744.00
2019-05-07T07:33:47.832Z,21632.00
2019-05-07T07:34:47.725Z,23136.00
2019-05-07T07:36:42.330Z,19328.00
2019-05-07T07:37:40.860Z,18656.00
2019-05-07T07:39:32.984Z,20416.00
2019-05-07T07:40:32.884Z,20928.00
2019-05-07T07:42:25.579Z,21120.00
2019-05-07T07:43:25.454Z,23008.00
2019-05-07T07:45:18.167Z,20928.00
2019-05-07T07:46:18.048Z,20320.00
2019-05-07T07:48:12.995Z,21632.00
2019-05-07T07:49:14.523Z,24256.00
2019-05-07T07:51:03.520Z,28160.00
2019-05-07T07:52:03.388Z,21408.00
2019-05-07T07:53:55.884Z,26080.00
2019-05-07T07:54:55.822Z,23680.00
2019-05-07T07:56:52.964Z,21728.00
2019-05-07T07:57:48.364Z,20448.00
2019-05-07T07:59:42.132Z,19296.00
2019-05-07T08:00:42.871Z,18016.00
2019-05-07T08:02:33.636Z,17280.00
2019-05-07T08:03:33.525Z,17472.00
2019-05-07T08:05:26.217Z,18592.00
2019-05-07T08:06:26.098Z,19392.00
2019-05-07T08:08:18.785Z,24928.00
2019-05-07T08:09:18.687Z,28448.00
2019-05-07T08:11:12.763Z,31648.00
2019-05-07T08:12:12.742Z,42848.00
2019-05-07T08:14:03.945Z,54496.00
2019-05-07T08:15:14.735Z,31808.00
2019-05-07T08:16:56.549Z,38304.00
2019-05-07T08:17:56.428Z,33984.00
2019-05-07T08:19:49.112Z,28384.00
2019-05-07T08:20:49.007Z,26048.00
2019-05-07T08:22:42.333Z,32032.00
2019-05-07T08:23:42.394Z,35072.00
2019-05-07T08:25:34.294Z,55072.00
2019-05-07T08:26:34.179Z,55712.00
2019-05-07T08:28:26.978Z,25760.00
2019-05-07T08:29:26.874Z,20512.00
2019-05-07T08:31:19.581Z,45504.00
2019-05-07T08:32:19.466Z,37152.00
2019-05-07T08:34:14.070Z,23488.00
2019-05-07T08:35:14.154Z,23424.00
2019-05-07T08:37:05.259Z,20832.00
2019-05-07T08:38:05.140Z,20640.00
2019-05-07T08:39:57.817Z,21376.00
2019-05-07T08:40:57.731Z,20960.00
2019-05-07T08:42:52.389Z,20032.00
2019-05-07T08:43:51.786Z,19552.00
2019-05-07T08:45:43.277Z,18912.00
2019-05-07T08:46:42.892Z,19104.00
2019-05-07T08:48:35.579Z,19392.00
2019-05-07T08:49:39.560Z,19456.00
2019-05-07T08:51:28.188Z,18592.00
2019-05-07T08:52:28.100Z,17856.00
2019-05-07T08:54:22.607Z,15776.00
2019-05-07T08:55:21.764Z,14976.00
2019-05-07T08:57:13.353Z,15040.00
2019-05-07T08:58:13.245Z,15456.00
2019-05-07T09:00:05.939Z,16064.00
2019-05-07T09:01:05.820Z,15776.00
2019-05-07T09:02:58.504Z,16032.00
2019-05-07T09:03:58.394Z,16800.00
2019-05-07T09:05:51.966Z,17888.00
2019-05-07T09:06:51.950Z,17504.00
2019-05-07T09:08:43.795Z,17024.00
2019-05-07T09:09:43.591Z,16576.00
2019-05-07T09:11:36.250Z,15392.00
2019-05-07T09:12:36.135Z,15520.00
2019-05-07T09:14:28.814Z,15552.00
2019-05-07T09:15:28.708Z,15712.00
2019-05-07T09:17:22.991Z,15040.00
2019-05-07T09:18:22.864Z,14636.00
2019-05-07T09:20:13.999Z,13672.00
2019-05-07T09:21:13.879Z,12912.00
2019-05-07T09:23:06.563Z,12200.00
2019-05-07T09:24:06.458Z,12000.00
2019-05-07T09:25:59.156Z,10380.00
2019-05-07T09:26:59.038Z,9764.00
2019-05-07T09:28:52.380Z,8572.00
2019-05-07T09:29:52.079Z,8764.00
2019-05-07T09:31:44.305Z,9436.00
2019-05-07T09:32:44.192Z,9592.00
2019-05-07T09:34:36.865Z,9392.00
2019-05-07T09:35:39.673Z,9392.00
2019-05-07T09:37:29.450Z,9544.00
2019-05-07T09:38:29.338Z,10140.00
2019-05-07T09:40:22.022Z,11724.00
2019-05-07T09:41:22.300Z,12504.00
2019-05-07T09:43:14.586Z,13820.00
2019-05-07T09:44:14.484Z,14644.00
2019-05-07T09:46:07.171Z,14288.00
2019-05-07T09:47:07.054Z,13772.00
2019-05-07T09:48:59.731Z,13780.00
2019-05-07T09:50:04.810Z,14448.00
2019-05-07T09:51:52.323Z,15456.00
2019-05-07T09:52:52.216Z,15712.00
2019-05-07T09:54:45.384Z,16768.00
2019-05-07T09:55:45.273Z,17504.00
2019-05-07T09:57:37.974Z,18208.00
2019-05-07T09:58:39.142Z,18848.00
2019-05-07T10:00:31.945Z,17760.00
2019-05-07T10:01:31.881Z,17024.00
2019-05-07T10:03:23.127Z,16960.00
2019-05-07T10:04:23.017Z,17376.00
2019-05-07T10:06:15.728Z,17120.00
2019-05-07T10:07:15.602Z,16448.00
2019-05-07T10:09:08.283Z,16224.00
2019-05-07T10:10:08.181Z,16320.00
2019-05-07T10:12:02.788Z,16224.00
2019-05-07T10:13:01.831Z,16160.00
2019-05-07T10:14:53.463Z,16288.00
2019-05-07T10:15:53.340Z,16032.00
2019-05-07T10:17:46.027Z,14688.00
2019-05-07T10:18:45.920Z,13564.00
2019-05-07T10:20:38.607Z,11832.00
2019-05-07T10:21:38.492Z,11392.00
2019-05-07T10:23:31.180Z,11212.00
2019-05-07T10:24:31.081Z,10960.00
2019-05-07T10:26:23.786Z,10968.00
2019-05-07T10:27:23.666Z,11308.00
2019-05-07T10:29:16.355Z,11568.00
2019-05-07T10:30:16.249Z,11524.00
2019-05-07T10:32:08.941Z,11560.00
2019-05-07T10:33:08.818Z,11760.00
2019-05-07T10:35:02.307Z,12648.00
2019-05-07T10:36:02.106Z,13060.00
2019-05-07T10:37:54.078Z,14176.00
2019-05-07T10:38:53.974Z,15008.00
2019-05-07T10:40:46.671Z,15968.00
2019-05-07T10:41:46.546Z,16512.00
2019-05-07T10:43:39.227Z,17536.00
2019-05-07T10:44:39.123Z,17888.00
2019-05-07T10:46:32.003Z,18080.00
2019-05-07T10:47:31.702Z,18048.00
2019-05-07T10:49:24.405Z,18048.00
2019-05-07T10:50:35.363Z,18240.00
2019-05-07T10:52:16.973Z,18432.00
2019-05-07T10:53:16.856Z,18016.00
2019-05-07T10:55:11.860Z,16992.00
2019-05-07T10:56:09.437Z,16288.00
2019-05-07T10:58:02.961Z,15200.00
2019-05-07T10:59:02.806Z,15072.00
2019-05-07T11:00:54.712Z,14976.00
2019-05-07T11:01:54.593Z,14464.00
2019-05-07T11:03:47.274Z,13040.00
2019-05-07T11:04:47.168Z,12252.00
2019-05-07T11:06:41.735Z,11140.00
2019-05-07T11:07:41.739Z,10608.00
2019-05-07T11:09:32.853Z,9292.00
2019-05-07T11:10:32.822Z,8632.00
2019-05-07T11:12:25.021Z,7816.00
2019-05-07T11:13:24.910Z,7524.00
2019-05-07T11:15:17.603Z,7068.00
2019-05-07T11:16:17.483Z,6828.00
2019-05-07T11:18:10.172Z,5956.00
2019-05-07T11:19:10.064Z,5504.00
2019-05-07T11:21:03.173Z,4984.00
2019-05-07T11:22:02.654Z,4752.00
2019-05-07T11:23:55.324Z,5188.00
2019-05-07T11:24:55.222Z,5976.00
2019-05-07T11:26:47.905Z,7648.00
2019-05-07T11:27:47.811Z,7792.00
2019-05-07T11:29:42.831Z,7764.00
2019-05-07T11:30:42.356Z,8008.00
2019-05-07T11:32:33.064Z,8676.00
2019-05-07T11:33:32.940Z,8984.00
2019-05-07T11:35:25.643Z,8940.00
2019-05-07T11:36:25.518Z,8804.00
2019-05-07T11:38:21.505Z,9980.00
2019-05-07T11:39:18.091Z,11928.00
2019-05-07T11:41:12.658Z,13996.00
2019-05-07T11:42:12.610Z,14208.00
2019-05-07T11:44:03.371Z,15008.00
2019-05-07T11:45:03.260Z,15104.00
2019-05-07T11:46:55.962Z,13732.00
2019-05-07T11:47:55.835Z,12724.00
2019-05-07T11:49:48.545Z,11500.00
2019-05-07T11:51:00.445Z,11020.00
2019-05-07T11:52:42.542Z,10320.00
2019-05-07T11:53:41.958Z,10216.00
2019-05-07T11:55:33.686Z,10736.00
2019-05-07T11:56:33.563Z,11108.00
2019-05-07T11:58:26.250Z,11984.00
2019-05-07T11:59:26.136Z,12556.00
2019-05-07T12:01:18.836Z,14304.00
2019-05-07T12:02:18.714Z,13936.00
2019-05-07T12:04:12.558Z,14296.00
2019-05-07T12:05:12.119Z,14688.00
2019-05-07T12:07:03.979Z,14084.00
2019-05-07T12:08:03.863Z,13932.00
2019-05-07T12:09:56.562Z,13636.00
2019-05-07T12:10:56.440Z,13280.00
2019-05-07T12:12:49.119Z,13592.00
2019-05-07T12:13:49.017Z,13616.00
2019-05-07T12:15:42.893Z,11680.00
2019-05-07T12:16:42.586Z,11256.00
2019-05-07T12:18:34.277Z,11064.00
2019-05-07T12:19:34.172Z,11300.00
2019-05-07T12:21:26.874Z,11916.00
2019-05-07T12:22:26.747Z,12212.00
2019-05-07T12:24:19.440Z,12136.00
2019-05-07T12:25:19.327Z,12024.00
2019-05-07T12:27:12.038Z,12532.00
2019-05-07T12:28:13.275Z,12792.00
2019-05-07T12:30:04.613Z,12208.00
2019-05-07T12:31:04.495Z,11752.00
2019-05-07T12:32:57.181Z,11392.00
2019-05-07T12:33:57.089Z,11800.00
2019-05-07T12:35:49.766Z,13660.00
2019-05-07T12:36:49.642Z,14528.00
2019-05-07T12:38:42.329Z,15104.00
2019-05-07T12:39:42.443Z,15072.00
2019-05-07T12:41:34.915Z,15328.00
2019-05-07T12:42:34.797Z,15776.00
2019-05-07T12:44:27.476Z,14464.00
2019-05-07T12:45:27.369Z,12484.00
2019-05-07T12:47:22.340Z,10004.00
2019-05-07T12:48:21.770Z,9344.00
2019-05-07T12:50:12.653Z,8676.00
2019-05-07T12:51:12.638Z,9000.00
2019-05-07T12:53:05.203Z,10080.00
2019-05-07T12:54:05.099Z,10948.00
2019-05-07T12:55:57.795Z,10460.00
2019-05-07T12:56:57.776Z,9508.00
2019-05-07T12:58:51.811Z,9680.00
2019-05-07T12:59:50.288Z,9504.00
2019-05-07T13:01:42.954Z,8984.00
2019-05-07T13:02:44.292Z,8020.00
2019-05-07T13:04:35.520Z,7688.00
2019-05-07T13:05:35.419Z,8876.00
2019-05-07T13:07:28.116Z,10040.00
2019-05-07T13:08:28.003Z,9928.00
2019-05-07T13:10:21.895Z,9628.00
2019-05-07T13:11:22.195Z,9532.00
2019-05-07T13:13:13.251Z,9984.00
2019-05-07T13:14:13.145Z,9840.00
2019-05-07T13:16:05.901Z,9040.00
2019-05-07T13:17:05.786Z,8960.00
2019-05-07T13:18:58.473Z,8120.00
2019-05-07T13:19:58.355Z,7432.00
2019-05-07T13:21:51.671Z,6104.00
2019-05-07T13:22:51.555Z,5404.00
2019-05-07T13:24:44.253Z,4284.00
2019-05-07T13:25:44.154Z,3956.00
2019-05-07T13:27:39.917Z,3872.00
2019-05-07T13:28:36.727Z,3996.00
2019-05-07T13:30:29.427Z,4328.00
2019-05-07T13:31:29.301Z,4588.00
2019-05-07T13:33:22.833Z,5004.00
2019-05-07T13:34:22.884Z,5264.00
2019-05-07T13:36:14.581Z,5796.00
2019-05-07T13:37:14.455Z,5892.00
2019-05-07T13:40:07.072Z,7112.00
2019-05-07T13:42:01.941Z,8660.00
2019-05-07T13:42:59.594Z,10044.00
2019-05-07T13:44:52.271Z,12704.00
2019-05-07T13:45:53.120Z,14944.00
2019-05-07T13:47:44.943Z,14784.00
2019-05-07T13:48:45.777Z,13528.00
2019-05-07T13:50:37.554Z,10992.00
2019-05-07T13:51:37.383Z,10200.00
2019-05-07T13:53:32.126Z,10764.00
2019-05-07T13:54:29.917Z,10724.00
2019-05-07T13:56:22.590Z,10184.00
2019-05-07T13:57:22.737Z,9928.00
2019-05-07T13:59:15.170Z,9672.00
2019-05-07T14:00:15.059Z,9356.00
2019-05-07T14:02:07.739Z,8492.00
2019-05-07T14:03:07.783Z,8504.00
2019-05-07T14:05:00.313Z,8396.00
2019-05-07T14:06:01.742Z,8180.00
2019-05-07T14:07:52.872Z,7560.00
2019-05-07T14:08:52.765Z,7172.00
2019-05-07T14:10:45.462Z,6644.00
2019-05-07T14:11:45.391Z,6472.00
2019-05-07T14:13:38.025Z,6212.00
2019-05-07T14:14:37.966Z,6428.00
2019-05-07T14:16:30.622Z,8072.00
2019-05-07T14:17:30.508Z,8756.00
2019-05-07T14:19:23.166Z,9336.00
2019-05-07T14:20:23.066Z,8824.00
2019-05-07T14:22:19.046Z,7356.00
2019-05-07T14:23:15.637Z,6228.00
2019-05-07T14:25:08.381Z,5232.00
2019-05-07T14:26:08.222Z,5220.00
2019-05-07T14:28:02.249Z,5900.00
2019-05-07T14:29:01.866Z,6280.00
2019-05-07T14:30:53.478Z,6996.00
2019-05-07T14:31:53.359Z,7508.00
2019-05-07T14:33:46.036Z,7856.00
2019-05-07T14:34:45.927Z,7808.00
2019-05-07T14:36:38.626Z,7804.00
2019-05-07T14:37:38.505Z,7692.00
2019-05-07T14:39:33.140Z,6968.00
2019-05-07T14:40:32.347Z,6444.00
2019-05-07T14:42:24.002Z,5216.00
2019-05-07T14:43:24.575Z,4532.00
2019-05-07T14:45:16.341Z,3392.00
2019-05-07T14:46:16.210Z,2848.00
2019-05-07T14:48:09.494Z,2060.00
2019-05-07T14:49:08.790Z,1792.00
2019-05-07T14:51:02.240Z,1516.00
2019-05-07T14:52:02.733Z,1484.00
2019-05-07T14:53:54.040Z,1580.00
2019-05-07T14:54:53.933Z,1668.00
2019-05-07T14:56:46.651Z,1868.00
2019-05-07T14:57:46.532Z,1956.00
2019-05-07T14:59:39.196Z,2000.00
2019-05-07T15:00:39.091Z,1992.00
2019-05-07T15:02:32.617Z,1944.00
2019-05-07T15:03:31.995Z,1932.00
2019-05-07T15:05:24.341Z,1936.00
2019-05-07T15:06:24.223Z,1940.00
2019-05-07T15:08:17.054Z,1888.00
2019-05-07T15:09:16.973Z,1876.00
2019-05-07T15:11:09.657Z,1960.00
2019-05-07T15:12:11.548Z,2044.00
2019-05-07T15:14:03.370Z,2296.00
2019-05-07T15:15:03.226Z,2432.00
2019-05-07T15:16:55.903Z,2984.00
2019-05-07T15:17:55.777Z,3312.00
2019-05-07T15:19:48.462Z,4272.00
2019-05-07T15:20:48.377Z,4936.00
2019-05-07T15:22:49.205Z,5872.00
2019-05-07T15:23:42.461Z,6208.00
2019-05-07T15:25:33.599Z,6992.00
2019-05-07T15:26:33.475Z,7524.00
2019-05-07T15:28:26.146Z,8116.00
2019-05-07T15:29:26.042Z,8252.00
2019-05-07T15:31:18.729Z,8524.00
2019-05-07T15:32:18.611Z,8468.00
2019-05-07T15:34:12.365Z,8124.00
2019-05-07T15:35:12.607Z,7932.00
2019-05-07T15:37:03.887Z,7548.00
2019-05-07T15:38:03.763Z,7372.00
2019-05-07T15:39:56.432Z,7848.00
2019-05-07T15:40:56.318Z,8108.00
2019-05-07T15:42:49.019Z,8016.00
2019-05-07T15:43:48.900Z,7728.00
2019-05-07T15:45:41.574Z,7352.00
2019-05-07T15:46:42.779Z,7172.00
2019-05-07T15:48:34.153Z,6688.00
2019-05-07T15:49:34.115Z,6400.00
2019-05-07T15:51:27.216Z,6112.00
2019-05-07T15:52:27.103Z,6104.00
2019-05-07T15:54:21.932Z,5884.00
2019-05-07T15:55:19.676Z,5684.00
2019-05-07T15:57:12.664Z,5732.00
2019-05-07T15:58:12.238Z,5920.00
2019-05-07T16:00:04.947Z,6288.00
2019-05-07T16:01:04.812Z,6432.00
2019-05-07T16:02:57.500Z,6544.00
2019-05-07T16:03:57.389Z,6520.00
2019-05-07T16:05:50.073Z,6332.00
2019-05-07T16:06:49.957Z,6224.00
2019-05-07T16:08:42.695Z,6016.00
2019-05-07T16:09:42.538Z,5916.00
2019-05-07T16:11:35.241Z,5984.00
2019-05-07T16:12:35.105Z,6048.00
2019-05-07T16:14:27.802Z,5992.00
2019-05-07T16:15:27.696Z,5892.00
2019-05-07T16:17:21.734Z,5816.00
2019-05-07T16:18:23.664Z,5800.00
2019-05-07T16:20:14.290Z,5808.00
2019-05-07T16:21:12.829Z,5840.00
2019-05-07T16:23:14.873Z,5896.00
2019-05-07T16:24:05.400Z,5876.00
2019-05-07T16:25:58.085Z,5744.00
2019-05-07T16:26:57.986Z,5684.00
2019-05-07T16:28:50.688Z,5568.00
2019-05-07T16:29:52.512Z,5524.00
2019-05-07T16:31:44.275Z,5512.00
2019-05-07T16:32:43.125Z,5616.00
2019-05-07T16:34:35.970Z,5844.00
2019-05-07T16:35:35.702Z,6008.00
2019-05-07T16:37:28.392Z,6260.00
2019-05-07T16:38:28.279Z,6268.00
2019-05-07T16:40:22.816Z,6068.00
2019-05-07T16:41:22.364Z,5872.00
2019-05-07T16:43:13.537Z,5440.00
2019-05-07T16:44:13.427Z,5456.00
2019-05-07T16:46:06.128Z,5524.00
2019-05-07T16:47:06.063Z,5536.00
2019-05-07T16:48:58.677Z,5224.00
2019-05-07T16:49:58.577Z,5152.00
2019-05-07T16:51:52.430Z,5092.00
2019-05-07T16:52:52.454Z,5060.00
2019-05-07T16:54:45.267Z,4764.00
2019-05-07T16:55:43.727Z,4584.00
2019-05-07T16:57:36.412Z,4208.00
2019-05-07T16:58:36.294Z,4056.00
2019-05-07T17:00:28.967Z,3952.00
2019-05-07T17:01:28.872Z,3964.00
2019-05-07T17:03:21.551Z,3840.00
2019-05-07T17:04:22.780Z,3748.00
2019-05-07T17:06:14.101Z,3556.00
2019-05-07T17:07:13.994Z,3420.00
2019-05-07T17:09:06.731Z,3252.00
2019-05-07T17:10:06.570Z,3240.00
2019-05-07T17:11:59.268Z,3284.00
2019-05-07T17:12:59.140Z,3284.00
2019-05-07T17:14:51.872Z,3260.00
2019-05-07T17:15:52.293Z,3176.00
2019-05-07T17:17:44.415Z,2984.00
2019-05-07T17:18:44.299Z,2916.00
2019-05-07T17:20:37.961Z,2824.00
2019-05-07T17:21:37.854Z,2788.00
2019-05-07T17:23:43.700Z,2696.00
2019-05-07T17:24:30.421Z,2632.00
2019-05-07T17:26:23.324Z,2548.00
2019-05-07T17:27:22.989Z,2524.00
2019-05-07T17:29:15.679Z,2460.00
2019-05-07T17:30:15.559Z,2420.00
2019-05-07T17:32:08.233Z,2324.00
2019-05-07T17:33:08.123Z,2276.00
2019-05-07T17:35:02.554Z,2156.00
2019-05-07T17:36:02.485Z,2120.00
2019-05-07T17:38:06.088Z,2072.00
2019-05-07T17:38:53.260Z,2048.00
2019-05-07T17:40:45.948Z,2012.00
2019-05-07T17:41:45.828Z,2004.00
2019-05-07T17:43:38.499Z,1988.00
2019-05-07T17:44:38.392Z,1972.00
2019-05-07T17:46:32.327Z,1992.00
2019-05-07T17:47:32.215Z,1984.00
2019-05-07T17:49:23.644Z,1888.00
2019-05-07T17:50:23.533Z,1864.00
2019-05-07T17:52:16.212Z,1824.00
2019-05-07T17:53:16.090Z,1796.00
2019-05-07T17:55:10.499Z,1748.00
2019-05-07T17:56:08.654Z,1724.00
2019-05-07T17:58:02.028Z,1668.00
2019-05-07T17:59:02.897Z,1636.00
2019-05-07T18:00:53.889Z,1580.00
2019-05-07T18:01:54.167Z,1552.00
2019-05-07T18:03:46.466Z,1496.00
2019-05-07T18:04:50.860Z,1468.00
2019-05-07T18:06:39.011Z,1412.00
2019-05-07T18:07:38.901Z,1384.00
2019-05-07T18:09:31.954Z,1332.00
2019-05-07T18:10:31.987Z,1304.00
2019-05-07T18:12:24.147Z,1252.00
2019-05-07T18:13:24.037Z,1220.00
2019-05-07T18:15:16.727Z,1172.00
2019-05-07T18:16:16.602Z,1136.00
2019-05-07T18:18:09.271Z,1088.00
2019-05-07T18:19:09.166Z,1060.00
2019-05-07T18:21:02.454Z,1008.00
2019-05-07T18:22:02.672Z,984.00
2019-05-07T18:23:54.395Z,936.00
2019-05-07T18:24:54.282Z,912.00
2019-05-07T18:26:46.989Z,868.00
2019-05-07T18:27:46.860Z,840.00
2019-05-07T18:29:39.551Z,792.00
2019-05-07T18:30:39.423Z,764.00
2019-05-07T18:32:32.470Z,712.00
2019-05-07T18:33:33.630Z,684.00
2019-05-07T18:35:24.674Z,636.00
2019-05-07T18:36:24.567Z,608.00
2019-05-07T18:38:17.273Z,560.00
2019-05-07T18:39:19.913Z,540.00
2019-05-07T18:41:12.190Z,496.00
2019-05-07T18:42:12.554Z,476.00
2019-05-07T18:44:12.407Z,432.00
2019-05-07T18:45:03.277Z,412.00
2019-05-07T18:46:56.031Z,372.00
2019-05-07T18:47:55.928Z,352.00
2019-05-07T18:49:48.527Z,316.00
2019-05-07T18:50:48.402Z,312.00
2019-05-07T18:52:42.423Z,280.00
2019-05-07T18:53:42.501Z,264.00
2019-05-07T18:55:34.144Z,236.00
2019-05-07T18:56:34.027Z,220.00
2019-05-07T18:58:26.730Z,196.00
2019-05-07T18:59:26.611Z,184.00
2019-05-07T19:01:19.270Z,160.00
2019-05-07T19:02:19.289Z,148.00
2019-05-07T19:04:12.898Z,132.00
2019-05-07T19:05:13.075Z,120.00
2019-05-07T19:07:04.424Z,104.00
2019-05-07T19:08:08.447Z,92.00
2019-05-07T19:09:56.972Z,76.00
2019-05-07T19:10:56.903Z,68.00
2019-05-07T19:12:49.515Z,60.00
2019-05-07T19:13:49.402Z,56.00
2019-05-07T19:15:42.128Z,44.00
2019-05-07T19:16:43.051Z,44.00
2019-05-07T19:18:34.639Z,36.00
2019-05-07T19:19:34.549Z,36.00
2019-05-07T19:21:27.219Z,28.00
2019-05-07T19:22:27.090Z,28.00
2019-05-07T19:24:22.250Z,24.00
2019-05-07T19:25:19.671Z,20.00
2019-05-07T19:27:12.694Z,20.00
2019-05-07T19:28:14.911Z,16.00
2019-05-07T19:30:04.905Z,20.00
2019-05-07T19:31:05.024Z,16.00
2019-05-07T19:32:57.477Z,16.00
2019-05-07T19:33:57.363Z,16.00
2019-05-07T19:35:52.594Z,16.00
2019-05-07T19:36:52.044Z,12.00
2019-05-07T19:38:42.688Z,16.00
2019-05-07T19:39:42.967Z,16.00
2019-05-07T19:41:35.223Z,12.00
2019-05-07T19:42:35.109Z,12.00
2019-05-07T19:44:27.819Z,12.00
2019-05-07T19:45:27.694Z,12.00
2019-05-07T19:47:20.379Z,12.00
2019-05-07T19:48:20.270Z,12.00
2019-05-07T19:50:13.011Z,12.00
2019-05-07T19:51:12.894Z,12.00
2019-05-07T19:53:05.886Z,12.00
2019-05-07T19:54:06.085Z,12.00
2019-05-07T19:55:58.614Z,12.00
2019-05-07T19:56:58.495Z,12.00
2019-05-07T19:58:52.615Z,12.00
2019-05-07T19:59:52.266Z,12.00
2019-05-07T20:01:43.844Z,12.00
2019-05-07T20:02:43.683Z,12.00
2019-05-07T20:04:36.363Z,12.00
2019-05-07T20:05:37.394Z,12.00
2019-05-07T20:07:28.920Z,12.00
2019-05-07T20:08:28.795Z,12.00
2019-05-07T20:10:21.503Z,12.00
2019-05-07T20:11:22.422Z,12.00
2019-05-07T20:13:14.031Z,12.00
2019-05-07T20:14:13.922Z,12.00
2019-05-07T20:16:06.610Z,12.00
2019-05-07T20:17:06.480Z,12.00
2019-05-07T20:18:59.145Z,12.00
2019-05-07T20:19:59.457Z,12.00
2019-05-07T20:21:52.379Z,12.00
2019-05-07T20:22:51.909Z,12.00
2019-05-07T20:24:46.918Z,12.00
2019-05-07T20:25:44.495Z,12.00
2019-05-07T20:27:36.939Z,12.00
2019-05-07T20:28:36.810Z,0.00
2019-05-07T20:30:29.481Z,0.00
2019-05-07T20:31:29.359Z,0.00
2019-05-07T20:33:22.065Z,0.00
2019-05-07T20:34:22.179Z,0.00
2019-05-07T20:36:14.615Z,0.00
2019-05-07T20:37:14.496Z,0.00
2019-05-07T20:39:07.416Z,0.00
2019-05-07T20:40:07.096Z,0.00
2019-05-07T20:41:59.804Z,0.00
2019-05-07T20:43:01.807Z,0.00
2019-05-07T20:44:52.745Z,0.00
2019-05-07T20:45:52.618Z,0.00
2019-05-07T20:47:45.291Z,0.00
2019-05-07T20:48:45.174Z,0.00
2019-05-07T20:50:37.864Z,0.00
2019-05-07T20:51:37.735Z,0.00
2019-05-07T20:53:32.703Z,0.00
2019-05-07T20:54:32.375Z,0.00
2019-05-07T20:56:23.022Z,0.00
2019-05-07T20:57:22.895Z,0.00
2019-05-07T20:59:15.571Z,0.00
2019-05-07T21:00:15.454Z,0.00
2019-05-07T21:02:08.168Z,0.00
2019-05-07T21:03:08.033Z,0.00
2019-05-07T21:05:02.819Z,0.00
2019-05-07T21:06:02.280Z,0.00
2019-05-07T21:07:53.257Z,0.00
2019-05-07T21:08:53.128Z,0.00
2019-05-07T21:10:45.796Z,0.00
2019-05-07T21:11:45.765Z,0.00
2019-05-07T21:13:41.578Z,0.00
2019-05-07T21:14:38.301Z,0.00
2019-05-07T21:16:32.908Z,0.00
2019-05-07T21:17:32.215Z,0.00
2019-05-07T21:19:23.538Z,0.00
2019-05-07T21:20:23.408Z,0.00
2019-05-07T21:22:16.075Z,0.00
2019-05-07T21:23:15.964Z,0.00
2019-05-07T21:25:08.655Z,0.00
2019-05-07T21:26:08.514Z,0.00